createdAt,value
2018-06-08T00:01:34.604Z,21.71
2018-06-08T00:04:02.139Z,21.69
2018-06-08T00:06:29.699Z,21.64
2018-06-08T00:08:57.247Z,21.60
2018-06-08T00:11:24.811Z,21.54
2018-06-08T00:13:52.386Z,21.50
2018-06-08T00:16:19.944Z,21.48
2018-06-08T00:18:47.478Z,21.45
2018-06-08T00:21:15.102Z,21.48
2018-06-08T00:23:42.653Z,21.49
2018-06-08T00:26:10.198Z,21.49
2018-06-08T00:28:37.810Z,21.41
2018-06-08T00:31:05.347Z,21.37
2018-06-08T00:33:32.901Z,21.40
2018-06-08T00:36:00.471Z,21.36
2018-06-08T00:38:28.035Z,21.33
2018-06-08T00:40:55.559Z,21.32
2018-06-08T00:43:23.102Z,21.26
2018-06-08T00:45:50.674Z,21.19
2018-06-08T00:48:18.215Z,21.15
2018-06-08T00:50:52.427Z,21.11
2018-06-08T00:53:19.979Z,21.06
2018-06-08T00:55:47.535Z,21.02
2018-06-08T00:58:15.059Z,20.96
2018-06-08T01:00:42.627Z,20.90
2018-06-08T01:03:10.188Z,20.90
2018-06-08T01:05:37.725Z,20.90
2018-06-08T01:08:05.302Z,20.85
2018-06-08T01:10:32.818Z,20.83
2018-06-08T01:13:00.395Z,20.83
2018-06-08T01:15:28.015Z,20.79
2018-06-08T01:17:55.561Z,20.78
2018-06-08T01:20:23.095Z,20.75
2018-06-08T01:22:50.643Z,20.70
2018-06-08T01:25:18.179Z,20.68
2018-06-08T01:27:45.711Z,20.68
2018-06-08T01:30:13.253Z,20.66
2018-06-08T01:32:40.796Z,20.61
2018-06-08T01:35:08.356Z,20.57
2018-06-08T01:37:35.873Z,20.58
2018-06-08T01:40:03.466Z,20.52
2018-06-08T01:42:31.019Z,20.51
2018-06-08T01:44:58.606Z,20.47
2018-06-08T01:47:26.159Z,20.49
2018-06-08T01:49:53.717Z,20.44
2018-06-08T01:52:21.247Z,20.42
2018-06-08T01:54:48.815Z,20.40
2018-06-08T01:57:16.402Z,20.39
2018-06-08T01:59:43.978Z,20.42
2018-06-08T02:02:11.540Z,20.41
2018-06-08T02:04:39.083Z,20.34
2018-06-08T02:07:06.627Z,20.31
2018-06-08T02:09:34.174Z,20.28
2018-06-08T02:12:01.707Z,20.25
2018-06-08T02:14:29.227Z,20.22
2018-06-08T02:16:56.746Z,20.20
2018-06-08T02:19:24.277Z,20.19
2018-06-08T02:21:51.791Z,20.21
2018-06-08T02:24:19.357Z,20.22
2018-06-08T02:26:46.875Z,20.19
2018-06-08T02:29:14.410Z,20.16
2018-06-08T02:31:41.940Z,20.15
2018-06-08T02:34:09.506Z,20.12
2018-06-08T02:36:37.035Z,20.14
2018-06-08T02:39:06.970Z,20.13
2018-06-08T02:41:34.623Z,20.14
2018-06-08T02:44:02.159Z,20.14
2018-06-08T02:46:29.696Z,20.12
2018-06-08T02:48:57.226Z,20.14
2018-06-08T02:51:24.801Z,20.12
2018-06-08T02:53:52.322Z,20.16
2018-06-08T02:56:19.854Z,20.09
2018-06-08T03:01:21.619Z,20.10
2018-06-08T03:03:49.173Z,20.17
2018-06-08T03:06:16.703Z,20.26
2018-06-08T03:08:44.266Z,20.31
2018-06-08T03:11:11.794Z,20.38
2018-06-08T03:13:39.366Z,20.42
2018-06-08T03:16:06.890Z,20.43
2018-06-08T03:18:34.409Z,20.49
2018-06-08T03:21:01.922Z,20.56
2018-06-08T03:23:29.473Z,20.63
2018-06-08T03:25:57.006Z,20.68
2018-06-08T03:28:24.514Z,20.68
2018-06-08T03:30:52.070Z,20.72
2018-06-08T03:33:19.594Z,20.72
2018-06-08T03:35:47.133Z,20.72
2018-06-08T03:38:14.678Z,20.72
2018-06-08T03:40:42.237Z,20.64
2018-06-08T03:43:09.775Z,20.60
2018-06-08T03:45:37.351Z,20.57
2018-06-08T03:48:05.124Z,20.53
2018-06-08T03:50:32.672Z,20.51
2018-06-08T03:53:00.248Z,20.52
2018-06-08T03:55:27.765Z,20.57
2018-06-08T03:57:55.322Z,20.62
2018-06-08T04:00:22.859Z,20.64
2018-06-08T04:02:50.421Z,20.68
2018-06-08T04:05:17.950Z,20.68
2018-06-08T04:07:45.511Z,20.65
2018-06-08T04:10:13.018Z,20.67
2018-06-08T04:12:40.547Z,20.72
2018-06-08T04:15:08.082Z,20.67
2018-06-08T04:17:35.606Z,20.71
2018-06-08T04:20:03.272Z,20.74
2018-06-08T04:22:30.786Z,20.76
2018-06-08T04:24:58.376Z,20.82
2018-06-08T04:27:25.883Z,20.85
2018-06-08T04:29:53.415Z,20.88
2018-06-08T04:32:20.937Z,20.91
2018-06-08T04:34:48.504Z,20.95
2018-06-08T04:37:16.035Z,21.02
2018-06-08T04:39:43.560Z,21.06
2018-06-08T04:42:11.097Z,21.11
2018-06-08T04:44:38.651Z,21.10
2018-06-08T04:47:06.239Z,21.17
2018-06-08T04:49:33.761Z,21.24
2018-06-08T04:52:01.317Z,21.28
2018-06-08T04:54:28.854Z,21.42
2018-06-08T04:56:56.406Z,21.53
2018-06-08T04:59:23.952Z,21.59
2018-06-08T05:01:51.474Z,21.73
2018-06-08T05:04:19.014Z,21.85
2018-06-08T05:06:46.557Z,21.93
2018-06-08T05:09:14.078Z,22.02
2018-06-08T05:11:41.591Z,22.03
2018-06-08T05:14:09.134Z,22.07
2018-06-08T05:16:36.644Z,22.08
2018-06-08T05:19:04.290Z,22.20
2018-06-08T05:21:32.733Z,22.28
2018-06-08T05:24:00.504Z,22.45
2018-06-08T05:26:28.387Z,22.61
2018-06-08T05:28:56.167Z,22.72
2018-06-08T05:31:23.693Z,22.84
2018-06-08T05:33:51.202Z,23.01
2018-06-08T05:36:18.731Z,23.10
2018-06-08T05:38:46.238Z,23.20
2018-06-08T05:41:13.836Z,23.37
2018-06-08T05:43:41.358Z,23.49
2018-06-08T05:46:08.878Z,23.62
2018-06-08T05:48:36.477Z,23.76
2018-06-08T05:51:03.944Z,23.88
2018-06-08T05:53:31.602Z,24.00
2018-06-08T05:55:59.101Z,24.16
2018-06-08T05:58:26.637Z,24.37
2018-06-08T06:00:54.161Z,24.49
2018-06-08T06:03:21.685Z,24.49
2018-06-08T06:05:49.200Z,24.56
2018-06-08T06:08:16.698Z,24.72
2018-06-08T06:10:44.241Z,24.82
2018-06-08T06:13:11.735Z,24.92
2018-06-08T06:15:39.310Z,25.10
2018-06-08T06:18:06.824Z,25.15
2018-06-08T06:20:34.382Z,25.30
2018-06-08T06:23:01.923Z,25.48
2018-06-08T06:25:29.509Z,25.63
2018-06-08T06:27:57.022Z,25.79
2018-06-08T06:30:24.549Z,25.91
2018-06-08T06:32:52.085Z,25.99
2018-06-08T06:35:19.650Z,26.12
2018-06-08T06:37:47.222Z,26.09
2018-06-08T06:40:14.822Z,26.02
2018-06-08T06:42:42.358Z,26.12
2018-06-08T06:45:09.907Z,26.21
2018-06-08T06:47:37.434Z,26.22
2018-06-08T06:50:05.066Z,26.18
2018-06-08T06:52:32.610Z,26.39
2018-06-08T06:55:00.178Z,26.38
2018-06-08T06:57:27.698Z,26.33
2018-06-08T06:59:55.244Z,26.41
2018-06-08T07:02:22.762Z,26.55
2018-06-08T07:04:50.305Z,26.55
2018-06-08T07:07:17.818Z,26.53
2018-06-08T07:09:45.357Z,26.71
2018-06-08T07:12:14.080Z,26.94
2018-06-08T07:14:41.621Z,27.05
2018-06-08T07:17:09.133Z,27.10
2018-06-08T07:19:36.659Z,27.45
2018-06-08T07:22:04.207Z,27.68
2018-06-08T07:24:31.707Z,27.69
2018-06-08T07:26:59.246Z,28.00
2018-06-08T07:29:26.773Z,28.35
2018-06-08T07:31:54.357Z,28.49
2018-06-08T07:34:21.903Z,28.57
2018-06-08T07:36:49.450Z,28.70
2018-06-08T07:39:16.998Z,28.70
2018-06-08T07:41:44.526Z,28.76
2018-06-08T07:44:12.078Z,28.85
2018-06-08T07:46:39.595Z,28.95
2018-06-08T07:49:07.138Z,29.07
2018-06-08T07:51:34.658Z,29.33
2018-06-08T07:54:02.189Z,29.61
2018-06-08T07:56:29.710Z,29.84
2018-06-08T07:58:57.237Z,29.66
2018-06-08T08:01:24.746Z,29.53
2018-06-08T08:03:52.278Z,29.86
2018-06-08T08:06:19.794Z,30.34
2018-06-08T08:08:47.285Z,30.64
2018-06-08T08:11:14.825Z,30.66
2018-06-08T08:13:42.327Z,30.47
2018-06-08T08:16:09.882Z,30.60
2018-06-08T08:18:37.454Z,30.42
2018-06-08T08:21:05.036Z,30.21
2018-06-08T08:23:32.543Z,29.90
2018-06-08T08:26:00.102Z,30.05
2018-06-08T08:28:27.603Z,30.39
2018-06-08T08:30:55.138Z,30.55
2018-06-08T08:33:22.706Z,30.53
2018-06-08T08:35:50.223Z,30.34
2018-06-08T08:38:17.860Z,30.56
2018-06-08T08:40:45.414Z,30.94
2018-06-08T08:43:12.974Z,30.94
2018-06-08T08:45:40.584Z,30.87
2018-06-08T08:48:08.102Z,31.09
2018-06-08T08:50:35.626Z,30.90
2018-06-08T08:53:03.202Z,30.91
2018-06-08T08:55:30.734Z,31.52
2018-06-08T08:57:58.255Z,32.13
2018-06-08T09:00:25.841Z,32.20
2018-06-08T09:02:53.355Z,32.47
2018-06-08T09:05:20.914Z,32.96
2018-06-08T09:07:48.415Z,32.93
2018-06-08T09:10:15.957Z,33.50
2018-06-08T09:12:43.467Z,33.78
2018-06-08T09:15:10.995Z,34.03
2018-06-08T09:17:38.530Z,34.20
2018-06-08T09:20:06.074Z,34.45
2018-06-08T09:22:33.594Z,33.91
2018-06-08T09:25:01.134Z,33.03
2018-06-08T09:27:28.678Z,32.69
2018-06-08T09:29:56.192Z,32.33
2018-06-08T09:32:23.774Z,32.03
2018-06-08T09:34:51.823Z,31.63
2018-06-08T09:37:19.329Z,31.35
2018-06-08T09:39:46.860Z,31.16
2018-06-08T09:42:14.361Z,31.14
2018-06-08T09:44:41.895Z,31.08
2018-06-08T09:47:09.431Z,31.03
2018-06-08T09:49:37.017Z,31.08
2018-06-08T09:52:04.542Z,31.03
2018-06-08T09:54:32.074Z,31.44
2018-06-08T09:56:59.584Z,32.40
2018-06-08T09:59:27.143Z,33.31
2018-06-08T10:01:54.691Z,33.74
2018-06-08T10:04:22.287Z,33.48
2018-06-08T10:06:49.861Z,33.02
2018-06-08T10:09:17.370Z,32.42
2018-06-08T10:11:45.866Z,32.66
2018-06-08T10:14:13.370Z,33.40
2018-06-08T10:16:40.996Z,33.43
2018-06-08T10:19:08.470Z,33.95
2018-06-08T10:21:36.039Z,34.33
2018-06-08T10:24:03.607Z,34.64
2018-06-08T10:26:31.121Z,34.75
2018-06-08T10:28:58.666Z,34.60
2018-06-08T10:31:26.218Z,34.71
2018-06-08T10:33:53.758Z,34.89
2018-06-08T10:36:21.314Z,35.16
2018-06-08T10:38:48.875Z,35.74
2018-06-08T10:41:16.386Z,36.32
2018-06-08T10:43:43.958Z,36.62
2018-06-08T10:46:11.458Z,36.44
2018-06-08T10:48:38.998Z,36.41
2018-06-08T10:51:06.503Z,36.65
2018-06-08T10:53:34.022Z,37.16
2018-06-08T10:56:01.566Z,36.06
2018-06-08T10:58:29.106Z,36.65
2018-06-08T11:00:56.662Z,37.24
2018-06-08T11:03:24.174Z,37.42
2018-06-08T11:05:51.900Z,37.57
2018-06-08T11:08:19.418Z,37.68
2018-06-08T11:10:46.978Z,38.15
2018-06-08T11:13:14.501Z,37.84
2018-06-08T11:15:42.012Z,37.89
2018-06-08T11:18:09.545Z,37.59
2018-06-08T11:20:37.220Z,37.62
2018-06-08T11:23:04.777Z,38.46
2018-06-08T11:25:32.330Z,39.01
2018-06-08T11:27:59.862Z,39.38
2018-06-08T11:30:27.442Z,38.60
2018-06-08T11:32:55.002Z,38.66
2018-06-08T11:35:22.511Z,38.75
2018-06-08T11:37:50.039Z,39.11
2018-06-08T11:40:17.553Z,39.78
2018-06-08T11:42:45.067Z,40.28
2018-06-08T11:45:12.600Z,40.73
2018-06-08T11:47:40.118Z,41.17
2018-06-08T11:50:07.677Z,40.92
2018-06-08T11:52:35.219Z,40.90
2018-06-08T11:55:02.775Z,40.52
2018-06-08T11:57:30.287Z,39.68
2018-06-08T11:59:57.803Z,40.15
2018-06-08T12:02:25.354Z,40.47
2018-06-08T12:04:52.869Z,40.86
2018-06-08T12:07:20.434Z,41.08
2018-06-08T12:09:47.955Z,41.16
2018-06-08T12:12:15.514Z,41.47
2018-06-08T12:14:43.026Z,41.45
2018-06-08T12:17:10.615Z,41.71
2018-06-08T12:19:38.081Z,41.99
2018-06-08T12:22:05.581Z,42.28
2018-06-08T12:24:33.098Z,42.60
2018-06-08T12:27:00.636Z,42.75
2018-06-08T12:29:28.225Z,42.91
2018-06-08T12:31:55.725Z,42.92
2018-06-08T12:34:23.258Z,43.02
2018-06-08T12:36:50.757Z,43.20
2018-06-08T12:39:18.298Z,42.59
2018-06-08T12:41:45.830Z,40.58
2018-06-08T12:44:13.357Z,39.23
2018-06-08T12:46:40.854Z,38.42
2018-06-08T12:49:08.379Z,38.47
2018-06-08T12:51:35.906Z,39.36
2018-06-08T12:54:03.444Z,38.47
2018-06-08T12:56:31.013Z,37.95
2018-06-08T12:58:58.514Z,38.77
2018-06-08T13:01:26.055Z,39.70
2018-06-08T13:03:53.586Z,39.76
2018-06-08T13:06:21.141Z,39.75
2018-06-08T13:08:48.652Z,39.93
2018-06-08T13:11:16.210Z,39.69
2018-06-08T13:13:43.766Z,39.32
2018-06-08T13:16:11.296Z,39.67
2018-06-08T13:18:38.828Z,40.19
2018-06-08T13:21:06.362Z,41.16
2018-06-08T13:23:33.904Z,41.41
2018-06-08T13:26:01.433Z,41.59
2018-06-08T13:28:28.994Z,41.47
2018-06-08T13:30:56.534Z,41.99
2018-06-08T13:33:24.039Z,40.43
2018-06-08T13:35:51.579Z,39.75
2018-06-08T13:38:19.107Z,38.47
2018-06-08T13:40:46.654Z,39.57
2018-06-08T13:43:14.166Z,39.01
2018-06-08T13:45:41.692Z,38.57
2018-06-08T13:48:09.206Z,39.41
2018-06-08T13:50:36.719Z,40.44
2018-06-08T13:53:04.670Z,41.07
2018-06-08T13:55:32.410Z,41.50
2018-06-08T13:57:59.962Z,41.82
2018-06-08T14:00:27.611Z,40.75
2018-06-08T14:02:55.269Z,41.18
2018-06-08T14:05:22.784Z,41.44
2018-06-08T14:07:50.311Z,41.69
2018-06-08T14:10:17.871Z,41.50
2018-06-08T14:12:46.505Z,41.56
2018-06-08T14:15:14.061Z,41.82
2018-06-08T14:17:41.718Z,40.37
2018-06-08T14:20:09.262Z,38.82
2018-06-08T14:22:36.786Z,39.12
2018-06-08T14:25:04.350Z,40.25
2018-06-08T14:27:31.902Z,41.00
2018-06-08T14:29:59.460Z,41.26
2018-06-08T14:32:26.972Z,41.36
2018-06-08T14:34:54.626Z,41.33
2018-06-08T14:37:22.130Z,40.97
2018-06-08T14:39:49.662Z,41.08
2018-06-08T14:42:17.190Z,41.28
2018-06-08T14:44:44.762Z,41.32
2018-06-08T14:47:12.478Z,41.41
2018-06-08T14:49:39.962Z,41.41
2018-06-08T14:52:07.523Z,41.18
2018-06-08T14:54:35.031Z,40.68
2018-06-08T14:57:02.562Z,40.17
2018-06-08T14:59:30.071Z,39.74
2018-06-08T15:01:57.694Z,38.75
2018-06-08T15:04:25.308Z,38.42
2018-06-08T15:06:52.998Z,38.46
2018-06-08T15:09:21.530Z,38.23
2018-06-08T15:11:49.267Z,37.93
2018-06-08T15:14:17.030Z,37.50
2018-06-08T15:16:44.835Z,36.99
2018-06-08T15:19:12.560Z,36.24
2018-06-08T15:21:40.310Z,35.85
2018-06-08T15:24:08.947Z,35.61
2018-06-08T15:26:36.574Z,35.46
2018-06-08T15:29:04.585Z,35.19
2018-06-08T15:31:32.322Z,34.97
2018-06-08T15:33:59.913Z,34.84
2018-06-08T15:36:27.572Z,34.77
2018-06-08T15:38:55.135Z,34.51
2018-06-08T15:41:22.706Z,34.36
2018-06-08T15:43:50.480Z,34.23
2018-06-08T15:46:18.026Z,34.17
2018-06-08T15:48:46.051Z,34.02
2018-06-08T15:51:13.686Z,33.94
2018-06-08T15:53:41.294Z,34.04
2018-06-08T15:56:08.809Z,34.09
2018-06-08T15:58:36.370Z,34.02
2018-06-08T16:01:04.079Z,33.95
2018-06-08T16:03:31.850Z,33.77
2018-06-08T16:05:59.537Z,33.49
2018-06-08T16:08:27.206Z,33.52
2018-06-08T16:10:54.951Z,33.38
2018-06-08T16:13:22.669Z,33.20
2018-06-08T16:15:50.310Z,33.04
2018-06-08T16:18:17.953Z,32.75
2018-06-08T16:20:45.474Z,32.59
2018-06-08T16:23:13.025Z,32.52
2018-06-08T16:25:40.618Z,32.45
2018-06-08T16:28:08.302Z,32.46
2018-06-08T16:30:36.093Z,32.47
2018-06-08T16:33:04.015Z,32.52
2018-06-08T16:35:32.225Z,32.58
2018-06-08T16:37:59.858Z,32.53
2018-06-08T16:40:27.617Z,32.45
2018-06-08T16:42:55.235Z,32.47
2018-06-08T16:45:22.902Z,32.48
2018-06-08T16:47:50.491Z,32.45
2018-06-08T16:50:18.042Z,32.46
2018-06-08T16:52:45.578Z,32.46
2018-06-08T16:55:13.143Z,32.42
2018-06-08T16:57:40.754Z,32.31
2018-06-08T17:00:08.327Z,32.23
2018-06-08T17:02:35.890Z,32.21
2018-06-08T17:05:03.688Z,32.17
2018-06-08T17:07:31.333Z,32.08
2018-06-08T17:09:58.974Z,31.94
2018-06-08T17:12:26.520Z,31.88
2018-06-08T17:14:54.174Z,31.85
2018-06-08T17:17:21.705Z,31.78
2018-06-08T17:19:49.342Z,31.66
2018-06-08T17:22:16.901Z,31.56
2018-06-08T17:24:44.394Z,31.44
2018-06-08T17:27:11.986Z,31.32
2018-06-08T17:29:39.558Z,31.19
2018-06-08T17:32:07.102Z,31.10
2018-06-08T17:34:35.272Z,31.06
2018-06-08T17:37:03.153Z,30.98
2018-06-08T17:39:30.736Z,30.92
2018-06-08T17:41:58.307Z,30.87
2018-06-08T17:44:26.075Z,30.79
2018-06-08T17:46:53.762Z,30.71
2018-06-08T17:49:21.421Z,30.61
2018-06-08T17:51:49.119Z,30.54
2018-06-08T17:54:17.021Z,30.44
2018-06-08T17:56:45.187Z,30.34
2018-06-08T17:59:12.866Z,30.28
2018-06-08T18:01:40.578Z,30.19
2018-06-08T18:04:08.245Z,30.14
2018-06-08T18:06:35.928Z,30.10
2018-06-08T18:09:05.217Z,30.03
2018-06-08T18:11:32.849Z,29.99
2018-06-08T18:14:00.663Z,29.95
2018-06-08T18:16:28.286Z,29.85
2018-06-08T18:18:55.994Z,29.78
2018-06-08T18:21:23.873Z,29.73
2018-06-08T18:23:51.616Z,29.61
2018-06-08T18:26:19.257Z,29.56
2018-06-08T18:28:46.900Z,29.54
2018-06-08T18:31:14.653Z,29.49
2018-06-08T18:33:42.617Z,29.44
2018-06-08T18:36:10.246Z,29.38
2018-06-08T18:38:37.834Z,29.37
2018-06-08T18:41:05.523Z,29.33
2018-06-08T18:43:33.249Z,29.31
2018-06-08T18:46:01.085Z,29.26
2018-06-08T18:48:28.679Z,29.25
2018-06-08T18:50:56.433Z,29.20
2018-06-08T18:53:24.119Z,29.19
2018-06-08T18:55:51.875Z,29.15
2018-06-08T18:58:19.549Z,29.13
2018-06-08T19:00:47.265Z,29.08
2018-06-08T19:03:15.121Z,29.05
2018-06-08T19:05:42.726Z,28.97
2018-06-08T19:08:10.338Z,28.92
2018-06-08T19:10:38.058Z,28.85
2018-06-08T19:13:05.602Z,28.81
2018-06-08T19:15:33.126Z,28.77
2018-06-08T19:18:00.695Z,28.65
2018-06-08T19:20:28.258Z,28.61
2018-06-08T19:22:55.823Z,28.53
2018-06-08T19:25:23.341Z,28.50
2018-06-08T19:27:50.958Z,28.43
2018-06-08T19:30:18.470Z,28.37
2018-06-08T19:32:46.003Z,28.30
2018-06-08T19:35:13.648Z,28.21
2018-06-08T19:37:41.158Z,28.11
2018-06-08T19:40:08.725Z,28.05
2018-06-08T19:42:36.254Z,27.97
2018-06-08T19:45:03.986Z,27.92
2018-06-08T19:47:31.681Z,27.89
2018-06-08T19:49:59.209Z,27.78
2018-06-08T19:52:26.802Z,27.73
2018-06-08T19:54:54.342Z,27.66
2018-06-08T19:57:21.883Z,27.59
2018-06-08T19:59:49.398Z,27.50
2018-06-08T20:02:16.950Z,27.47
2018-06-08T20:04:44.450Z,27.40
2018-06-08T20:07:12.018Z,27.36
2018-06-08T20:09:39.526Z,27.33
2018-06-08T20:12:07.069Z,27.27
2018-06-08T20:14:34.573Z,27.21
2018-06-08T20:17:02.351Z,27.16
2018-06-08T20:19:29.905Z,27.19
2018-06-08T20:21:57.405Z,27.19
2018-06-08T20:24:24.982Z,27.21
2018-06-08T20:26:52.497Z,27.11
2018-06-08T20:29:20.759Z,27.06
2018-06-08T20:31:48.266Z,27.02
2018-06-08T20:34:15.821Z,26.99
2018-06-08T20:36:43.389Z,26.96
2018-06-08T20:39:10.925Z,26.93
2018-06-08T20:41:38.465Z,26.89
2018-06-08T20:44:06.023Z,26.93
2018-06-08T20:46:33.546Z,26.86
2018-06-08T20:49:01.155Z,26.84
2018-06-08T20:51:28.688Z,26.83
2018-06-08T20:53:56.209Z,26.81
2018-06-08T20:56:23.864Z,26.84
2018-06-08T20:58:51.944Z,26.82
2018-06-08T21:01:19.463Z,26.78
2018-06-08T21:03:47.038Z,26.73
2018-06-08T21:06:14.606Z,26.75
2018-06-08T21:08:42.170Z,26.77
2018-06-08T21:11:09.721Z,26.72
2018-06-08T21:13:37.271Z,26.64
2018-06-08T21:16:04.818Z,26.56
2018-06-08T21:18:32.359Z,26.59
2018-06-08T21:20:59.898Z,26.55
2018-06-08T21:23:27.446Z,26.60
2018-06-08T21:25:55.527Z,26.65
2018-06-08T21:28:23.065Z,26.65
2018-06-08T21:30:50.580Z,26.65
2018-06-08T21:33:18.142Z,26.62
2018-06-08T21:35:45.997Z,26.66
2018-06-08T21:38:13.503Z,26.70
2018-06-08T21:40:41.022Z,26.67
2018-06-08T21:43:08.579Z,26.68
2018-06-08T21:45:36.095Z,26.64
2018-06-08T21:48:03.667Z,26.63
2018-06-08T21:50:31.198Z,26.59
2018-06-08T21:52:58.777Z,26.50
2018-06-08T21:55:26.802Z,26.51
2018-06-08T21:57:54.337Z,26.55
2018-06-08T22:00:21.945Z,26.58
2018-06-08T22:02:49.466Z,26.53
2018-06-08T22:05:17.027Z,26.48
2018-06-08T22:07:44.540Z,26.41
2018-06-08T22:10:12.099Z,26.29
2018-06-08T22:12:39.672Z,26.29
2018-06-08T22:15:07.240Z,26.21
2018-06-08T22:17:34.746Z,26.14
2018-06-08T22:20:02.303Z,26.12
2018-06-08T22:22:29.850Z,26.07
2018-06-08T22:24:57.438Z,25.97
2018-06-08T22:27:24.970Z,25.91
2018-06-08T22:29:52.484Z,25.85
2018-06-08T22:32:20.084Z,25.83
2018-06-08T22:34:47.603Z,25.80
2018-06-08T22:37:15.146Z,25.80
2018-06-08T22:39:42.689Z,25.82
2018-06-08T22:42:10.266Z,25.76
2018-06-08T22:44:37.808Z,25.73
2018-06-08T22:47:05.354Z,25.76
2018-06-08T22:49:32.869Z,25.73
2018-06-08T22:52:00.393Z,25.71
2018-06-08T22:54:27.923Z,25.68
2018-06-08T22:56:55.429Z,25.69
2018-06-08T22:59:22.974Z,25.63
2018-06-08T23:01:50.509Z,25.59
2018-06-08T23:04:18.061Z,25.52
2018-06-08T23:06:45.574Z,25.51
2018-06-08T23:09:13.097Z,25.51
2018-06-08T23:11:40.631Z,25.47
2018-06-08T23:14:08.156Z,25.40
2018-06-08T23:16:35.702Z,25.47
2018-06-08T23:19:03.236Z,25.39
2018-06-08T23:21:30.814Z,25.36
2018-06-08T23:23:58.322Z,25.34
2018-06-08T23:26:25.860Z,25.36
2018-06-08T23:28:53.381Z,25.35
2018-06-08T23:31:20.895Z,25.29
2018-06-08T23:33:48.426Z,25.27
2018-06-08T23:36:15.954Z,25.26
2018-06-08T23:38:43.495Z,25.26
2018-06-08T23:41:11.005Z,25.26
2018-06-08T23:43:38.532Z,25.27
2018-06-08T23:46:06.058Z,25.28
2018-06-08T23:48:33.586Z,25.26
2018-06-08T23:51:01.107Z,25.25
2018-06-08T23:53:28.637Z,25.18
2018-06-08T23:55:56.223Z,25.14
2018-06-08T23:58:23.740Z,25.14
